Time;durP1;ratioP1;P1;durP2;ratioP2;P2;SDS_P1;SDS_P2;PMS_P1;PMS_P2;Temp;Humidity;BMP_temperature;BMP_pressure;BME280_temperature;BME280_humidity;BME280_pressure;Samples;Min_cycle;Max_cycle;Signal;HPM_P1;HPM_P2
2023/04/15 00:00:10;;;;;;;10.53;4.13;;;6.90;25.30;;;;;;5102348;27;20468;-71
2023/04/15 00:02:37;;;;;;;9.80;4.80;;;6.90;25.50;;;;;;5105155;27;21122;-71
2023/04/15 00:05:05;;;;;;;8.60;5.07;;;6.90;25.60;;;;;;5100339;27;20467;-71
2023/04/15 00:07:31;;;;;;;10.57;4.27;;;6.90;25.50;;;;;;5102712;27;20468;-71
2023/04/15 00:09:59;;;;;;;10.93;4.70;;;6.90;25.10;;;;;;5104418;27;20843;-71
2023/04/15 00:12:26;;;;;;;13.00;5.40;;;6.90;25.10;;;;;;5101181;27;20578;-71
2023/04/15 00:14:55;;;;;;;12.73;4.20;;;7.00;24.80;;;;;;5102251;28;20686;-71
2023/04/15 00:17:22;;;;;;;10.00;5.00;;;7.00;24.90;;;;;;5103679;27;20463;-71
2023/04/15 00:19:49;;;;;;;10.23;5.27;;;7.00;24.90;;;;;;5100795;28;20509;-71
2023/04/15 00:22:16;;;;;;;7.73;4.60;;;7.00;25.70;;;;;;5101300;28;20482;-71
2023/04/15 00:24:42;;;;;;;9.70;4.53;;;6.90;25.30;;;;;;5103686;28;20459;-71
2023/04/15 00:27:10;;;;;;;14.10;6.40;;;6.90;25.10;;;;;;5104036;28;20994;-71
2023/04/15 00:29:36;;;;;;;9.07;5.30;;;6.90;25.20;;;;;;5090971;27;20460;-71
2023/04/15 00:32:05;;;;;;;7.80;5.60;;;6.90;25.30;;;;;;5100542;27;20479;-71
2023/04/15 00:34:32;;;;;;;11.10;6.00;;;6.90;25.50;;;;;;5102369;27;20460;-71
2023/04/15 00:36:59;;;;;;;15.53;6.50;;;6.80;25.50;;;;;;5105646;27;20459;-71
2023/04/15 00:39:26;;;;;;;12.07;6.80;;;6.80;26.00;;;;;;5101946;27;20979;-71
2023/04/15 00:41:53;;;;;;;10.93;6.53;;;6.80;26.60;;;;;;5107240;27;20481;-71
2023/04/15 00:44:20;;;;;;;18.67;6.20;;;6.70;26.90;;;;;;5097671;27;20963;-71
2023/04/15 00:46:47;;;;;;;9.80;6.33;;;6.70;27.20;;;;;;5105674;27;20462;-71
2023/04/15 00:49:16;;;;;;;16.40;7.17;;;6.70;28.20;;;;;;5103790;27;20977;-71
2023/04/15 00:51:43;;;;;;;12.93;7.17;;;6.70;27.70;;;;;;5099429;27;20998;-69
2023/04/15 00:54:11;;;;;;;10.43;7.00;;;6.60;27.80;;;;;;5100706;27;20463;-72
2023/04/15 00:56:39;;;;;;;14.40;7.30;;;6.60;27.80;;;;;;5104253;27;20935;-71
2023/04/15 00:59:06;;;;;;;13.40;7.20;;;6.60;28.20;;;;;;5102462;28;20468;-71
2023/04/15 01:01:35;;;;;;;14.63;5.70;;;6.60;28.50;;;;;;5100211;28;20503;-71
2023/04/15 01:04:02;;;;;;;11.23;7.03;;;6.60;28.30;;;;;;5103290;27;21035;-71
2023/04/15 01:06:31;;;;;;;14.30;6.97;;;6.60;28.30;;;;;;5105681;28;20460;-71
2023/04/15 01:08:59;;;;;;;9.87;6.50;;;6.60;28.10;;;;;;5105588;27;20992;-71
2023/04/15 01:11:26;;;;;;;11.50;6.60;;;6.60;28.10;;;;;;5100308;27;20478;-71
2023/04/15 01:13:55;;;;;;;12.60;6.80;;;6.60;28.00;;;;;;5105342;28;21005;-72
2023/04/15 01:16:22;;;;;;;14.43;6.20;;;6.60;27.90;;;;;;5105943;27;20547;-72
2023/04/15 01:18:49;;;;;;;10.80;7.00;;;6.60;28.00;;;;;;5105438;28;20483;-71
2023/04/15 01:21:16;;;;;;;10.63;6.33;;;6.60;28.00;;;;;;5111005;22;21044;-67
2023/04/15 01:23:46;;;;;;;14.53;6.63;;;6.50;28.50;;;;;;5097441;28;20497;-67
2023/04/15 01:26:15;;;;;;;9.30;6.00;;;6.60;28.20;;;;;;5100468;28;20467;-66
2023/04/15 01:28:42;;;;;;;10.80;6.80;;;6.60;28.30;;;;;;5105672;28;20464;-66
2023/04/15 01:31:11;;;;;;;14.30;6.37;;;6.60;28.40;;;;;;5098501;28;20478;-66
2023/04/15 01:33:38;;;;;;;9.50;6.00;;;6.60;28.30;;;;;;5099917;28;20460;-66
2023/04/15 01:36:07;;;;;;;12.53;6.90;;;6.50;28.30;;;;;;5098220;28;21045;-66
2023/04/15 01:38:34;;;;;;;10.37;7.43;;;6.50;28.60;;;;;;5098212;28;20502;-67
2023/04/15 01:41:02;;;;;;;12.70;6.60;;;6.50;28.50;;;;;;5092264;28;20476;-66
2023/04/15 01:43:30;;;;;;;12.50;6.80;;;6.40;28.70;;;;;;5100589;28;20856;-66
2023/04/15 01:45:57;;;;;;;11.33;5.90;;;6.40;28.90;;;;;;5106163;28;20463;-66
2023/04/15 01:48:23;;;;;;;11.57;7.30;;;6.40;29.10;;;;;;5103957;28;20955;-66
2023/04/15 01:50:51;;;;;;;10.73;5.77;;;6.30;29.40;;;;;;5101608;28;20491;-66
2023/04/15 01:53:17;;;;;;;15.17;7.23;;;6.30;29.60;;;;;;5091418;28;20459;-66
2023/04/15 01:55:44;;;;;;;11.73;6.53;;;6.30;29.70;;;;;;5104910;28;20463;-67
2023/04/15 01:58:11;;;;;;;11.97;5.47;;;6.30;29.80;;;;;;5102281;28;20465;-66
2023/04/15 02:00:39;;;;;;;11.87;6.03;;;6.20;29.90;;;;;;5102483;28;21015;-67
2023/04/15 02:03:06;;;;;;;12.57;6.83;;;6.20;29.80;;;;;;5120618;28;20455;-67
2023/04/15 02:05:32;;;;;;;11.50;7.00;;;6.20;29.90;;;;;;5118977;28;20467;-67
2023/04/15 02:07:59;;;;;;;9.73;5.70;;;6.20;29.70;;;;;;5100505;28;20525;-66
2023/04/15 02:10:26;;;;;;;14.10;6.70;;;6.20;29.90;;;;;;5097478;28;20547;-66
2023/04/15 02:12:53;;;;;;;9.53;5.27;;;6.20;30.00;;;;;;5098942;28;20943;-66
2023/04/15 02:15:20;;;;;;;12.73;6.50;;;6.20;30.80;;;;;;5102635;28;20466;-66
2023/04/15 02:17:49;;;;;;;10.70;6.23;;;6.10;30.40;;;;;;5102700;28;20474;-66
2023/04/15 02:20:16;;;;;;;9.77;6.13;;;6.20;30.30;;;;;;5096913;28;20507;-67
2023/04/15 02:22:43;;;;;;;9.77;5.80;;;6.20;30.20;;;;;;5101907;28;20459;-67
2023/04/15 02:25:10;;;;;;;14.23;6.40;;;6.20;30.10;;;;;;5101419;28;20463;-67
2023/04/15 02:27:37;;;;;;;11.87;5.90;;;6.10;30.10;;;;;;5097699;28;20493;-66
2023/04/15 02:30:04;;;;;;;11.00;5.90;;;6.10;30.20;;;;;;5090854;28;20888;-66
2023/04/15 02:32:31;;;;;;;9.03;5.20;;;6.10;30.30;;;;;;5094526;28;20476;-66
2023/04/15 02:35:02;;;;;;;12.07;6.40;;;6.10;30.30;;;;;;5096604;28;20459;-66
2023/04/15 02:37:30;;;;;;;11.53;5.23;;;6.00;30.30;;;;;;5100123;28;20470;-66
2023/04/15 02:39:57;;;;;;;8.53;5.50;;;6.00;30.50;;;;;;5095947;28;20487;-66
2023/04/15 02:42:26;;;;;;;8.00;5.03;;;6.00;30.40;;;;;;5100208;28;20486;-66
2023/04/15 02:44:54;;;;;;;11.10;5.10;;;5.90;30.40;;;;;;5094085;28;21026;-65
2023/04/15 02:47:21;;;;;;;9.73;5.70;;;5.90;30.90;;;;;;5105537;28;20490;-66
2023/04/15 02:49:47;;;;;;;8.80;5.97;;;5.90;30.20;;;;;;5105453;28;20455;-66
2023/04/15 02:52:15;;;;;;;12.07;7.03;;;5.90;30.10;;;;;;5100463;28;20474;-66
2023/04/15 02:54:42;;;;;;;10.40;5.90;;;5.80;30.10;;;;;;5109409;28;20840;-66
2023/04/15 02:57:10;;;;;;;9.17;5.60;;;5.80;30.10;;;;;;5110872;27;20470;-66
2023/04/15 02:59:38;;;;;;;11.57;6.47;;;5.80;30.30;;;;;;5098560;28;20482;-66
2023/04/15 03:02:06;;;;;;;10.03;6.53;;;5.80;30.30;;;;;;5106725;27;20479;-66
2023/04/15 03:04:33;;;;;;;10.20;5.93;;;5.70;30.40;;;;;;5104182;27;20460;-66
2023/04/15 03:07:00;;;;;;;10.40;5.53;;;5.70;30.40;;;;;;5103488;27;20471;-66
2023/04/15 03:09:29;;;;;;;10.70;5.67;;;5.70;30.30;;;;;;5102888;28;20481;-66
2023/04/15 03:11:55;;;;;;;12.50;6.10;;;5.70;30.20;;;;;;5099742;28;20475;-66
2023/04/15 03:14:22;;;;;;;15.47;6.40;;;5.70;30.50;;;;;;5100823;28;20542;-66
2023/04/15 03:16:50;;;;;;;11.13;5.47;;;5.70;30.40;;;;;;5104074;28;20947;-66
2023/04/15 03:19:17;;;;;;;10.90;5.90;;;5.70;30.80;;;;;;5105003;28;20553;-66
2023/04/15 03:21:44;;;;;;;15.80;6.57;;;5.70;31.00;;;;;;5100799;28;20483;-66
2023/04/15 03:24:11;;;;;;;11.03;5.70;;;5.70;30.90;;;;;;5100971;28;20459;-66
2023/04/15 03:26:39;;;;;;;7.50;4.47;;;5.70;30.70;;;;;;5104291;28;20475;-66
2023/04/15 03:29:06;;;;;;;11.50;5.60;;;5.70;30.90;;;;;;5104705;27;20448;-67
2023/04/15 03:31:33;;;;;;;8.77;4.63;;;5.70;30.80;;;;;;5092975;28;20719;-66
2023/04/15 03:33:59;;;;;;;10.10;4.33;;;5.70;30.90;;;;;;5102345;28;20464;-65
2023/04/15 03:36:27;;;;;;;10.13;5.30;;;5.70;30.90;;;;;;5101317;28;20464;-66
2023/04/15 03:38:53;;;;;;;12.73;4.23;;;5.60;30.90;;;;;;5101341;28;20459;-66
2023/04/15 03:41:20;;;;;;;10.70;5.67;;;5.60;30.90;;;;;;5099326;28;20510;-67
2023/04/15 03:43:50;;;;;;;7.80;4.47;;;5.60;30.80;;;;;;5108805;27;20463;-66
2023/04/15 03:46:17;;;;;;;9.20;5.10;;;5.60;30.50;;;;;;5104974;27;20546;-65
2023/04/15 03:48:44;;;;;;;10.40;5.00;;;5.60;30.40;;;;;;5108709;28;20471;-66
2023/04/15 03:51:11;;;;;;;10.60;4.40;;;5.60;30.30;;;;;;5592708;22;20892;-66
2023/04/15 03:53:38;;;;;;;8.33;4.27;;;5.50;30.20;;;;;;5085128;28;20472;-66
2023/04/15 03:56:05;;;;;;;9.87;4.40;;;5.50;30.20;;;;;;5087129;28;20465;-66
2023/04/15 03:58:32;;;;;;;11.13;4.53;;;5.50;30.30;;;;;;5086507;28;20961;-66
2023/04/15 04:01:00;;;;;;;11.03;4.93;;;5.50;30.20;;;;;;5075290;28;20479;-67
2023/04/15 04:03:26;;;;;;;11.63;5.37;;;5.40;30.10;;;;;;5057043;28;21310;-66
2023/04/15 04:05:53;;;;;;;13.17;5.20;;;5.40;30.20;;;;;;5111812;22;20997;-70
2023/04/15 04:08:20;;;;;;;8.07;4.27;;;5.40;30.20;;;;;;5064703;28;20466;-70
2023/04/15 04:10:47;;;;;;;8.93;4.77;;;5.40;30.20;;;;;;5063956;28;20477;-70
2023/04/15 04:13:14;;;;;;;8.13;4.50;;;5.30;30.30;;;;;;5066604;28;20980;-70
2023/04/15 04:15:41;;;;;;;8.30;3.90;;;5.30;30.40;;;;;;5054991;28;20456;-70
2023/04/15 04:18:09;;;;;;;10.93;4.87;;;5.30;30.30;;;;;;5059939;28;20461;-70
2023/04/15 04:20:36;;;;;;;10.90;5.80;;;5.30;30.30;;;;;;5061710;28;20486;-70
2023/04/15 04:23:02;;;;;;;9.40;4.93;;;5.20;30.20;;;;;;5063325;28;20957;-70
2023/04/15 04:25:29;;;;;;;12.00;5.00;;;5.20;30.20;;;;;;5068369;28;20464;-70
2023/04/15 04:27:56;;;;;;;9.47;4.43;;;5.20;30.30;;;;;;5063119;28;20470;-71
2023/04/15 04:30:22;;;;;;;11.30;5.23;;;5.20;30.40;;;;;;5056053;28;20480;-70
2023/04/15 04:32:50;;;;;;;9.90;5.63;;;5.20;30.50;;;;;;5059284;28;20560;-68
2023/04/15 04:35:18;;;;;;;10.80;5.07;;;5.10;30.50;;;;;;5060403;28;20473;-68
2023/04/15 04:37:44;;;;;;;11.03;5.83;;;5.10;30.50;;;;;;5061736;28;20473;-68
2023/04/15 04:40:12;;;;;;;8.00;5.00;;;5.10;30.70;;;;;;5066924;28;20500;-68
2023/04/15 04:42:39;;;;;;;12.20;5.40;;;5.10;30.80;;;;;;5064900;28;20992;-68
2023/04/15 04:45:07;;;;;;;7.90;4.60;;;5.10;30.80;;;;;;5064726;28;20458;-68
2023/04/15 04:47:34;;;;;;;9.80;5.40;;;5.10;30.90;;;;;;5065124;28;20464;-68
2023/04/15 04:50:00;;;;;;;11.10;5.47;;;5.10;31.50;;;;;;5065693;28;20456;-68
2023/04/15 04:52:28;;;;;;;10.90;4.90;;;5.10;30.80;;;;;;5064669;28;20498;-68
2023/04/15 04:54:55;;;;;;;8.60;4.63;;;5.10;30.60;;;;;;5053673;28;20465;-68
2023/04/15 04:57:22;;;;;;;12.23;4.93;;;5.10;30.50;;;;;;5063856;28;20468;-68
2023/04/15 04:59:49;;;;;;;12.17;5.50;;;5.10;30.50;;;;;;5063619;28;20499;-68
2023/04/15 05:02:15;;;;;;;8.23;4.20;;;5.10;30.60;;;;;;5053159;28;21025;-70
2023/04/15 05:04:42;;;;;;;11.83;4.83;;;5.20;30.60;;;;;;5063723;28;20877;-70
2023/04/15 05:07:09;;;;;;;9.00;4.70;;;5.20;30.30;;;;;;5061136;28;20480;-69
2023/04/15 05:09:37;;;;;;;7.43;3.80;;;5.20;30.30;;;;;;5063106;28;20462;-70
2023/04/15 05:12:05;;;;;;;7.43;3.60;;;5.20;30.20;;;;;;5054370;28;20993;-70
2023/04/15 05:14:32;;;;;;;8.10;3.80;;;5.20;30.20;;;;;;5058192;28;20472;-70
2023/04/15 05:16:58;;;;;;;8.47;3.63;;;5.20;30.30;;;;;;5067085;28;20465;-70
2023/04/15 05:19:25;;;;;;;8.47;3.50;;;5.30;30.30;;;;;;5059015;28;20974;-70
2023/04/15 05:21:52;;;;;;;7.50;3.53;;;5.40;30.10;;;;;;5061206;28;20512;-71
2023/04/15 05:24:19;;;;;;;8.00;3.77;;;5.50;30.00;;;;;;5055127;28;20865;-70
2023/04/15 05:26:47;;;;;;;8.80;4.13;;;5.70;29.80;;;;;;5063823;28;20836;-70
2023/04/15 05:29:13;;;;;;;9.20;4.10;;;5.80;29.40;;;;;;5058680;28;21040;-70
2023/04/15 05:31:40;;;;;;;8.93;4.00;;;6.00;29.20;;;;;;5060014;28;21015;-70
2023/04/15 05:34:07;;;;;;;7.93;3.60;;;6.10;28.90;;;;;;5052337;28;20519;-71
2023/04/15 05:36:34;;;;;;;6.10;4.00;;;6.40;28.60;;;;;;5061408;28;20492;-70
2023/04/15 05:39:01;;;;;;;10.47;3.80;;;6.50;28.30;;;;;;5069007;28;20457;-70
2023/04/15 05:41:28;;;;;;;7.77;3.40;;;6.70;27.90;;;;;;5064271;28;20472;-70
2023/04/15 05:43:56;;;;;;;7.60;3.60;;;6.80;27.40;;;;;;5053718;28;20469;-70
2023/04/15 05:46:23;;;;;;;7.77;3.43;;;7.00;26.70;;;;;;5064586;28;20470;-70
2023/04/15 05:48:50;;;;;;;9.10;3.90;;;7.10;26.20;;;;;;5064870;28;20465;-70
2023/04/15 05:51:17;;;;;;;8.07;3.70;;;7.30;25.70;;;;;;5059177;28;20477;-70
2023/04/15 05:53:44;;;;;;;7.80;2.90;;;7.40;25.00;;;;;;5060619;28;20456;-70
2023/04/15 05:56:11;;;;;;;10.13;4.07;;;7.60;24.30;;;;;;5054651;28;21086;-70
2023/04/15 05:58:38;;;;;;;9.03;3.37;;;7.70;23.70;;;;;;5063792;28;20475;-70
2023/04/15 06:01:06;;;;;;;8.30;3.17;;;7.80;23.10;;;;;;5059544;28;21008;-72
2023/04/15 06:03:33;;;;;;;7.50;3.60;;;7.90;22.80;;;;;;5051282;28;20470;-69
2023/04/15 06:06:00;;;;;;;6.63;3.30;;;7.90;22.60;;;;;;5065034;28;20461;-70
2023/04/15 06:08:27;;;;;;;7.80;3.37;;;8.00;22.40;;;;;;5055985;28;20465;-68
2023/04/15 06:10:54;;;;;;;7.50;3.60;;;8.00;22.10;;;;;;5068540;28;20533;-68
2023/04/15 06:13:20;;;;;;;8.80;3.20;;;8.10;21.80;;;;;;5054881;28;20473;-68
2023/04/15 06:15:48;;;;;;;7.33;3.30;;;8.00;21.40;;;;;;5057410;28;20465;-71
2023/04/15 06:18:16;;;;;;;7.90;3.13;;;8.00;21.20;;;;;;5052757;28;20462;-68
2023/04/15 06:20:43;;;;;;;8.30;3.43;;;8.00;21.20;;;;;;5053659;28;20489;-68
2023/04/15 06:23:09;;;;;;;7.50;3.67;;;7.90;21.20;;;;;;5055001;28;20492;-68
2023/04/15 06:25:36;;;;;;;7.97;4.13;;;7.90;21.20;;;;;;5062151;28;20464;-68
2023/04/15 06:28:03;;;;;;;6.43;3.20;;;8.00;21.30;;;;;;5062844;28;20464;-72
2023/04/15 06:30:30;;;;;;;6.60;3.60;;;8.00;21.40;;;;;;5062761;28;21071;-68
2023/04/15 06:32:57;;;;;;;6.27;2.80;;;8.10;21.50;;;;;;5059915;28;20938;-70
2023/04/15 06:35:26;;;;;;;9.83;4.17;;;8.20;21.30;;;;;;5056886;28;20560;-67
2023/04/15 06:37:53;;;;;;;7.00;3.17;;;8.30;21.20;;;;;;5060204;28;20469;-68
2023/04/15 06:40:19;;;;;;;8.17;2.90;;;8.50;21.10;;;;;;5064991;28;20484;-68
2023/04/15 06:42:46;;;;;;;8.00;3.47;;;8.80;21.30;;;;;;5060753;28;21088;-68
2023/04/15 06:45:13;;;;;;;7.97;2.90;;;9.60;20.50;;;;;;5066571;28;20479;-68
2023/04/15 06:47:40;;;;;;;6.00;2.77;;;10.50;18.50;;;;;;5059274;28;20822;-68
2023/04/15 06:50:08;;;;;;;6.07;3.10;;;11.10;16.90;;;;;;5065965;28;20544;-68
2023/04/15 06:52:37;;;;;;;6.30;3.23;;;11.80;15.10;;;;;;5055820;28;20466;-68
2023/04/15 06:55:04;;;;;;;6.70;2.50;;;12.90;13.40;;;;;;5061086;28;20456;-68
2023/04/15 06:57:31;;;;;;;6.70;2.40;;;14.90;10.70;;;;;;5063454;28;20496;-68
2023/04/15 06:59:58;;;;;;;7.33;2.93;;;17.10;6.50;;;;;;5071940;28;20468;-68
2023/04/15 07:02:25;;;;;;;6.40;2.77;;;19.20;2.50;;;;;;5055528;28;20481;-68
2023/04/15 07:04:52;;;;;;;6.70;2.80;;;21.20;1.00;;;;;;5060114;28;21004;-69
2023/04/15 07:07:18;;;;;;;7.17;2.47;;;22.80;1.00;;;;;;5065956;28;20924;-70
2023/04/15 07:09:47;;;;;;;5.70;2.37;;;23.80;1.00;;;;;;5060316;28;20469;-69
2023/04/15 07:12:14;;;;;;;5.43;2.30;;;24.70;1.00;;;;;;5064395;28;21199;-69
2023/04/15 07:14:41;;;;;;;6.30;2.60;;;25.90;1.00;;;;;;5062156;28;20479;-70
2023/04/15 07:17:08;;;;;;;5.10;1.90;;;27.40;1.00;;;;;;5060799;28;20716;-70
2023/04/15 07:19:35;;;;;;;6.00;2.60;;;28.00;1.00;;;;;;5061923;28;20461;-70
2023/04/15 07:22:02;;;;;;;6.00;3.03;;;27.40;1.00;;;;;;5065578;28;20486;-70
2023/04/15 07:24:29;;;;;;;4.70;2.17;;;26.50;1.00;;;;;;5064750;28;20484;-70
2023/04/15 07:26:58;;;;;;;8.23;2.80;;;26.20;1.00;;;;;;5055212;28;20462;-70
2023/04/15 07:29:25;;;;;;;5.17;2.10;;;27.30;1.00;;;;;;5065764;28;20500;-70
2023/04/15 07:31:52;;;;;;;6.00;2.37;;;27.90;1.00;;;;;;5059867;28;20572;-70
2023/04/15 07:34:19;;;;;;;4.47;2.00;;;27.50;1.00;;;;;;5061349;28;20476;-70
2023/04/15 07:36:49;;;;;;;8.80;2.40;;;26.80;1.00;;;;;;5060486;28;20968;-70
2023/04/15 07:39:16;;;;;;;5.73;2.20;;;25.90;1.00;;;;;;5059606;28;20560;-69
2023/04/15 07:41:43;;;;;;;6.50;2.80;;;25.00;1.00;;;;;;5058534;28;20594;-69
2023/04/15 07:44:11;;;;;;;5.13;2.43;;;24.00;1.00;;;;;;5060054;28;20462;-69
2023/04/15 07:46:38;;;;;;;5.60;2.10;;;23.30;1.00;;;;;;5060365;28;20465;-70
2023/04/15 07:49:05;;;;;;;6.60;2.53;;;22.60;1.00;;;;;;5054795;28;20469;-69
2023/04/15 07:51:32;;;;;;;9.70;3.17;;;21.80;1.00;;;;;;5058718;28;20489;-69
2023/04/15 07:53:58;;;;;;;6.30;3.00;;;21.20;1.00;;;;;;5061862;28;20461;-69
2023/04/15 07:56:26;;;;;;;8.10;2.60;;;21.20;1.00;;;;;;5061205;28;20457;-70
2023/04/15 07:58:52;;;;;;;7.40;2.30;;;22.70;1.00;;;;;;5060117;28;20461;-69
2023/04/15 08:01:20;;;;;;;4.93;2.40;;;24.40;1.00;;;;;;5052133;28;20492;-70
2023/04/15 08:03:47;;;;;;;5.80;2.43;;;25.60;1.00;;;;;;5053393;28;20495;-71
2023/04/15 08:06:14;;;;;;;5.40;2.30;;;26.60;1.00;;;;;;5059567;28;20464;-71
2023/04/15 08:08:41;;;;;;;5.63;2.30;;;28.20;1.00;;;;;;5062100;28;20473;-71
2023/04/15 08:11:09;;;;;;;5.87;3.27;;;29.90;1.00;;;;;;5062649;28;20782;-71
2023/04/15 08:13:35;;;;;;;5.17;2.13;;;30.70;1.00;;;;;;5054578;28;20470;-71
2023/04/15 08:16:19;;;;;;;5.00;2.20;;;31.20;1.00;;;;;;5053816;28;21141;-71
2023/04/15 08:18:47;;;;;;;6.37;2.67;;;30.60;1.00;;;;;;5058985;28;20480;-71
2023/04/15 08:21:15;;;;;;;6.20;2.50;;;29.80;1.00;;;;;;5056695;28;20485;-71
2023/04/15 08:23:42;;;;;;;5.23;2.50;;;30.10;1.00;;;;;;5059967;28;20469;-71
2023/04/15 08:26:09;;;;;;;5.10;2.53;;;31.40;1.00;;;;;;5067367;28;20457;-71
2023/04/15 08:28:38;;;;;;;6.30;2.60;;;33.20;1.00;;;;;;5059910;28;20465;-71
2023/04/15 08:31:05;;;;;;;6.80;3.23;;;33.90;1.00;;;;;;5057236;28;20988;-71
2023/04/15 08:33:32;;;;;;;6.13;2.83;;;33.50;1.00;;;;;;5064161;28;20465;-71
2023/04/15 08:36:00;;;;;;;5.70;2.47;;;32.50;1.00;;;;;;5063066;28;20463;-71
2023/04/15 08:38:27;;;;;;;4.83;2.73;;;31.10;1.00;;;;;;5059129;28;21039;-71
2023/04/15 08:40:53;;;;;;;7.03;2.83;;;29.50;1.00;;;;;;5058615;28;20485;-71
2023/04/15 08:43:23;;;;;;;7.20;2.83;;;28.10;1.00;;;;;;5063656;28;20464;-71
2023/04/15 08:45:51;;;;;;;5.57;2.90;;;26.90;1.00;;;;;;5059981;28;20497;-71
2023/04/15 08:48:18;;;;;;;6.40;3.13;;;26.10;1.00;;;;;;5057385;28;20469;-72
2023/04/15 08:50:46;;;;;;;6.40;3.30;;;26.20;1.00;;;;;;5051692;28;20494;-71
2023/04/15 08:53:15;;;;;;;8.17;3.33;;;26.50;1.00;;;;;;5059962;28;20516;-71
2023/04/15 08:55:45;;;;;;;5.83;2.80;;;26.30;1.00;;;;;;5062725;28;20834;-71
2023/04/15 08:58:13;;;;;;;6.83;2.63;;;26.30;1.00;;;;;;5065714;28;20518;-71
2023/04/15 09:00:40;;;;;;;6.73;3.67;;;26.30;1.00;;;;;;5069680;28;20504;-71
2023/04/15 09:03:07;;;;;;;6.63;2.90;;;26.70;1.00;;;;;;5049664;28;20954;-71
2023/04/15 09:05:35;;;;;;;7.33;2.60;;;27.80;1.00;;;;;;5062652;28;20499;-71
2023/04/15 09:08:02;;;;;;;7.00;2.77;;;30.00;1.00;;;;;;5069571;28;20468;-71
2023/04/15 09:10:31;;;;;;;8.20;3.07;;;30.90;1.00;;;;;;5058164;28;20941;-71
2023/04/15 09:12:58;;;;;;;5.50;2.40;;;30.10;1.00;;;;;;5070208;28;20460;-71
2023/04/15 09:15:28;;;;;;;7.60;2.93;;;29.30;1.00;;;;;;5061734;28;20977;-72
2023/04/15 09:17:55;;;;;;;6.37;3.00;;;29.80;1.00;;;;;;5068010;28;20534;-71
2023/04/15 09:20:22;;;;;;;6.83;3.07;;;30.70;1.00;;;;;;5062275;28;20968;-72
2023/04/15 09:22:50;;;;;;;5.90;2.80;;;31.10;1.00;;;;;;5057487;28;20485;-72
2023/04/15 09:25:31;;;;;;;6.73;2.70;;;30.90;1.00;;;;;;5065868;28;20465;-72
2023/04/15 09:27:59;;;;;;;6.60;2.77;;;31.10;1.00;;;;;;5062786;28;20476;-72
2023/04/15 09:30:28;;;;;;;6.80;2.83;;;32.50;1.00;;;;;;5063666;28;20563;-72
2023/04/15 09:32:57;;;;;;;5.33;2.30;;;34.50;1.00;;;;;;5063197;28;20453;-72
2023/04/15 09:35:26;;;;;;;4.87;2.33;;;35.30;1.00;;;;;;5058909;28;20460;-72
2023/04/15 09:37:53;;;;;;;11.20;3.40;;;34.70;1.00;;;;;;5073179;28;20461;-72
2023/04/15 09:40:33;;;;;;;7.73;3.00;;;33.80;1.00;;;;;;5070432;28;20501;-72
2023/04/15 09:43:00;;;;;;;7.37;3.43;;;33.70;1.00;;;;;;5060240;28;20491;-72
2023/04/15 09:45:28;;;;;;;7.20;3.03;;;34.90;1.00;;;;;;5063903;28;20567;-71
2023/04/15 09:47:55;;;;;;;6.57;2.80;;;35.80;1.00;;;;;;5060741;28;20465;-72
2023/04/15 09:50:21;;;;;;;5.97;2.60;;;34.90;1.00;;;;;;5058439;28;20476;-72
2023/04/15 09:52:48;;;;;;;8.03;3.47;;;33.20;1.00;;;;;;5065340;28;20457;-71
2023/04/15 09:55:18;;;;;;;5.40;2.80;;;31.50;1.00;;;;;;5059584;28;21068;-71
2023/04/15 09:57:47;;;;;;;6.27;2.50;;;29.90;1.00;;;;;;5055718;28;20961;-71
2023/04/15 10:00:14;;;;;;;5.33;2.50;;;28.40;1.00;;;;;;5057084;28;20476;-71
2023/04/15 10:02:42;;;;;;;7.60;2.90;;;27.00;1.00;;;;;;5057347;28;20468;-71
2023/04/15 10:05:12;;;;;;;6.10;3.07;;;25.90;1.00;;;;;;5058339;28;20828;-72
2023/04/15 10:07:41;;;;;;;6.10;3.40;;;24.90;1.00;;;;;;5059298;28;20531;-72
2023/04/15 10:10:09;;;;;;;7.47;3.13;;;24.00;1.00;;;;;;5057863;28;20976;-71
2023/04/15 10:12:37;;;;;;;7.57;3.80;;;23.20;1.00;;;;;;5062390;28;20930;-71
2023/04/15 10:15:08;;;;;;;7.93;3.10;;;22.60;1.00;;;;;;5054462;28;20476;-71
2023/04/15 10:17:36;;;;;;;6.83;3.07;;;22.10;1.00;;;;;;5057848;28;20944;-71
2023/04/15 10:20:05;;;;;;;5.93;3.00;;;21.60;1.00;;;;;;5051969;28;20461;-71
2023/04/15 10:22:32;;;;;;;7.33;2.90;;;21.10;1.00;;;;;;5099970;22;21071;-68
2023/04/15 10:25:00;;;;;;;7.53;3.07;;;20.60;1.00;;;;;;5109371;27;20548;-69
2023/04/15 10:27:27;;;;;;;6.87;2.40;;;20.40;1.00;;;;;;5109369;27;20458;-70
2023/04/15 10:29:54;;;;;;;7.60;3.27;;;20.20;1.00;;;;;;5109880;27;20472;-71
2023/04/15 10:32:25;;;;;;;7.30;2.80;;;20.00;1.00;;;;;;5089745;28;20472;-69
2023/04/15 10:34:52;;;;;;;9.23;2.83;;;20.00;1.00;;;;;;5083287;28;20487;-68
2023/04/15 10:37:23;;;;;;;8.60;3.60;;;20.10;1.00;;;;;;5090998;28;20493;-68
2023/04/15 10:39:50;;;;;;;12.40;3.53;;;20.30;1.00;;;;;;5088131;28;20961;-68
2023/04/15 10:42:19;;;;;;;9.70;3.33;;;20.70;1.00;;;;;;5086062;28;20494;-69
2023/04/15 10:44:50;;;;;;;9.67;3.33;;;21.00;1.00;;;;;;5084152;28;21057;-68
2023/04/15 10:47:19;;;;;;;6.63;2.97;;;21.10;1.00;;;;;;5089427;28;20955;-69
2023/04/15 10:49:49;;;;;;;8.50;3.00;;;21.10;1.00;;;;;;5080614;28;20464;-68
2023/04/15 10:52:17;;;;;;;6.90;2.40;;;21.00;1.00;;;;;;5086962;28;20472;-68
2023/04/15 10:54:45;;;;;;;6.00;2.73;;;21.00;1.00;;;;;;5083472;28;20473;-69
2023/04/15 10:57:21;;;;;;;5.83;2.53;;;21.00;1.00;;;;;;5085803;28;20460;-69
2023/04/15 11:00:10;;;;;;;7.03;2.60;;;21.00;1.00;;;;;;5084743;28;21023;-69
2023/04/15 11:02:45;;;;;;;6.23;2.80;;;21.10;1.00;;;;;;5078584;28;20496;-68
2023/04/15 11:05:15;;;;;;;8.20;3.23;;;21.10;1.00;;;;;;5087596;28;20831;-68
2023/04/15 11:07:49;;;;;;;8.63;3.07;;;21.20;1.00;;;;;;5083680;28;20500;-68
2023/04/15 11:10:55;;;;;;;6.87;3.00;;;21.30;1.00;;;;;;5089800;28;20555;-68
2023/04/15 11:13:28;;;;;;;8.83;2.93;;;21.20;1.00;;;;;;5111339;28;20531;-68
2023/04/15 11:16:02;;;;;;;6.97;2.80;;;21.00;1.00;;;;;;5096638;28;20491;-68
2023/04/15 11:18:31;;;;;;;9.07;3.47;;;20.80;1.00;;;;;;5084100;28;21159;-68
2023/04/15 11:21:02;;;;;;;7.27;3.10;;;20.60;1.00;;;;;;5080892;28;20480;-68
2023/04/15 11:23:32;;;;;;;7.77;3.40;;;20.30;1.00;;;;;;5083211;28;20485;-69
2023/04/15 11:25:59;;;;;;;6.70;2.90;;;20.10;1.00;;;;;;5077367;28;20948;-69
2023/04/15 11:28:27;;;;;;;5.87;2.80;;;19.80;1.00;;;;;;5081968;28;20548;-68
2023/04/15 11:30:55;;;;;;;7.60;2.70;;;19.60;1.00;;;;;;5078953;28;20851;-68
2023/04/15 11:33:24;;;;;;;6.93;2.77;;;19.50;1.00;;;;;;5085413;28;20940;-68
2023/04/15 11:35:52;;;;;;;5.70;2.70;;;19.30;1.00;;;;;;5085046;28;20495;-68
2023/04/15 11:38:21;;;;;;;6.40;3.13;;;19.00;1.00;;;;;;5085107;28;20547;-68
2023/04/15 11:40:48;;;;;;;9.40;3.43;;;18.80;1.00;;;;;;5077063;28;20837;-68
2023/04/15 11:43:17;;;;;;;5.13;2.40;;;18.70;1.00;;;;;;5084316;28;20563;-68
2023/04/15 11:45:52;;;;;;;10.30;3.53;;;18.70;1.00;;;;;;5085661;28;21045;-68
2023/04/15 11:48:20;;;;;;;11.50;3.97;;;18.60;1.00;;;;;;5083591;28;20464;-68
2023/04/15 11:50:53;;;;;;;7.43;3.00;;;18.60;1.00;;;;;;5077236;28;20483;-69
2023/04/15 11:53:21;;;;;;;6.33;2.80;;;18.70;1.00;;;;;;5081235;28;20491;-69
2023/04/15 11:55:50;;;;;;;9.00;2.67;;;18.70;1.00;;;;;;5087038;28;20452;-69
2023/04/15 11:58:19;;;;;;;6.07;3.50;;;18.70;1.00;;;;;;5083609;28;20491;-69
2023/04/15 12:00:51;;;;;;;6.97;3.33;;;18.70;1.00;;;;;;5081921;28;20488;-68
2023/04/15 12:03:23;;;;;;;7.30;3.10;;;18.70;1.00;;;;;;5074007;28;20515;-68
2023/04/15 12:06:04;;;;;;;9.43;3.73;;;18.60;1.00;;;;;;5073884;28;20470;-68
2023/04/15 12:09:09;;;;;;;8.70;4.00;;;18.20;1.00;;;;;;5084953;28;20983;-69
2023/04/15 12:11:38;;;;;;;7.93;4.13;;;17.70;1.70;;;;;;5078127;28;20488;-68
2023/04/15 12:14:08;;;;;;;6.60;3.20;;;17.20;3.30;;;;;;5080346;28;20891;-68
2023/04/15 12:16:36;;;;;;;7.30;3.20;;;17.00;4.80;;;;;;5072814;28;20480;-68
2023/04/15 12:19:07;;;;;;;7.93;3.50;;;16.60;4.10;;;;;;5082113;28;21157;-68
2023/04/15 12:21:35;;;;;;;6.43;3.60;;;16.30;5.40;;;;;;5084867;28;20578;-67
2023/04/15 12:24:04;;;;;;;6.40;3.50;;;16.10;5.90;;;;;;5084501;28;20907;-69
2023/04/15 12:26:36;;;;;;;6.43;3.70;;;16.00;6.60;;;;;;5083755;28;20966;-68
2023/04/15 12:29:05;;;;;;;8.00;3.37;;;16.10;6.40;;;;;;5084425;28;20475;-68
2023/04/15 12:31:32;;;;;;;7.70;3.30;;;16.10;6.20;;;;;;5086407;28;20480;-67
2023/04/15 12:34:00;;;;;;;8.40;3.93;;;16.10;6.30;;;;;;5082834;28;20453;-68
2023/04/15 12:36:29;;;;;;;8.57;4.13;;;16.20;6.20;;;;;;5088895;28;20465;-68
2023/04/15 12:38:55;;;;;;;9.50;4.30;;;16.20;5.40;;;;;;5087054;28;21097;-68
2023/04/15 12:41:23;;;;;;;6.53;3.40;;;16.10;5.10;;;;;;5087426;28;20476;-68
2023/04/15 12:43:51;;;;;;;7.73;3.20;;;16.00;4.50;;;;;;5088600;28;20475;-68
2023/04/15 12:46:19;;;;;;;7.27;3.40;;;15.90;4.80;;;;;;5083958;28;20467;-67
2023/04/15 12:48:45;;;;;;;9.93;4.30;;;15.80;4.80;;;;;;5082042;28;20542;-67
2023/04/15 12:51:12;;;;;;;5.93;2.97;;;15.60;4.50;;;;;;5074466;28;20857;-67
2023/04/15 12:53:39;;;;;;;6.13;3.40;;;15.60;5.00;;;;;;5086514;28;20975;-67
2023/04/15 12:56:06;;;;;;;7.53;3.20;;;15.50;6.10;;;;;;5083352;28;20464;-67